sensor_id;sensor_type;location;lat;lon;timestamp;pressure;altitude;pressure_sealevel;temperature;humidity
32452;BME280;45528;52.102;5.242;2023-02-20T00:01:10;102121.0;;;12.99;58.53
32452;BME280;45528;52.102;5.242;2023-02-20T00:04:25;102109.0;;;12.85;58.87
32452;BME280;45528;52.102;5.242;2023-02-20T00:06:01;102100.0;;;12.99;58.55
32452;BME280;45528;52.102;5.242;2023-02-20T00:07:38;102096.0;;;12.99;58.79
32452;BME280;45528;52.102;5.242;2023-02-20T00:09:15;102086.0;;;12.92;59.08
32452;BME280;45528;52.102;5.242;2023-02-20T00:12:29;102077.0;;;13.11;58.55
32452;BME280;45528;52.102;5.242;2023-02-20T00:14:05;102073.0;;;13.05;58.84
32452;BME280;45528;52.102;5.242;2023-02-20T00:15:43;102086.0;;;13.24;58.43
32452;BME280;45528;52.102;5.242;2023-02-20T00:18:56;102100.0;;;13.03;58.7
32452;BME280;45528;52.102;5.242;2023-02-20T00:20:35;102116.0;;;13.12;58.6
32452;BME280;45528;52.102;5.242;2023-02-20T00:22:11;102098.0;;;13.26;58.32
32452;BME280;45528;52.102;5.242;2023-02-20T00:23:48;102087.0;;;13.22;58.36
32452;BME280;45528;52.102;5.242;2023-02-20T00:27:02;102087.0;;;13.38;58.03
32452;BME280;45528;52.102;5.242;2023-02-20T00:28:39;102084.0;;;13.39;57.86
32452;BME280;45528;52.102;5.242;2023-02-20T00:30:19;102078.0;;;13.39;57.87
32452;BME280;45528;52.102;5.242;2023-02-20T00:33:36;102080.0;;;13.37;57.97
32452;BME280;45528;52.102;5.242;2023-02-20T00:35:13;102081.0;;;13.46;57.74
32452;BME280;45528;52.102;5.242;2023-02-20T00:36:49;102069.0;;;13.3;58.15
32452;BME280;45528;52.102;5.242;2023-02-20T00:38:26;102068.0;;;13.18;58.6
32452;BME280;45528;52.102;5.242;2023-02-20T00:41:43;102070.0;;;13.17;58.34
32452;BME280;45528;52.102;5.242;2023-02-20T00:43:19;102071.0;;;13.18;58.31
32452;BME280;45528;52.102;5.242;2023-02-20T00:44:56;102067.0;;;13.07;58.7
32452;BME280;45528;52.102;5.242;2023-02-20T00:48:10;102058.0;;;13.14;58.51
32452;BME280;45528;52.102;5.242;2023-02-20T00:49:47;102060.0;;;13.24;58.18
32452;BME280;45528;52.102;5.242;2023-02-20T00:51:24;102056.0;;;13.21;58.27
32452;BME280;45528;52.102;5.242;2023-02-20T00:53:01;102058.0;;;13.21;58.23
32452;BME280;45528;52.102;5.242;2023-02-20T00:56:15;102053.0;;;13.22;58.37
32452;BME280;45528;52.102;5.242;2023-02-20T00:57:51;102050.0;;;13.34;57.92
32452;BME280;45528;52.102;5.242;2023-02-20T00:59:28;102047.0;;;13.31;58.15
32452;BME280;45528;52.102;5.242;2023-02-20T01:02:42;102048.0;;;13.26;58.27
32452;BME280;45528;52.102;5.242;2023-02-20T01:04:19;102049.0;;;13.29;58.1
32452;BME280;45528;52.102;5.242;2023-02-20T01:05:55;102045.0;;;13.2;58.17
32452;BME280;45528;52.102;5.242;2023-02-20T01:09:09;102041.0;;;13.27;57.8
32452;BME280;45528;52.102;5.242;2023-02-20T01:10:48;102032.0;;;13.26;57.84
32452;BME280;45528;52.102;5.242;2023-02-20T01:12:26;102024.0;;;13.38;57.36
32452;BME280;45528;52.102;5.242;2023-02-20T01:14:02;102022.0;;;13.16;58.09
32452;BME280;45528;52.102;5.242;2023-02-20T01:17:15;102005.0;;;13.14;58.15
32452;BME280;45528;52.102;5.242;2023-02-20T01:18:51;101993.0;;;13.14;58.11
32452;BME280;45528;52.102;5.242;2023-02-20T01:20:29;101978.0;;;12.66;59.03
32452;BME280;45528;52.102;5.242;2023-02-20T01:23:44;101975.0;;;12.95;58.8
32452;BME280;45528;52.102;5.242;2023-02-20T01:25:20;101968.0;;;12.91;58.94
32452;BME280;45528;52.102;5.242;2023-02-20T01:26:58;101955.0;;;12.96;58.58
32452;BME280;45528;52.102;5.242;2023-02-20T01:28:34;101967.0;;;13.0;58.17
32452;BME280;45528;52.102;5.242;2023-02-20T01:31:50;101970.0;;;12.85;58.8
32452;BME280;45528;52.102;5.242;2023-02-20T01:33:27;101962.0;;;12.74;59.04
32452;BME280;45528;52.102;5.242;2023-02-20T01:35:06;101970.0;;;12.9;58.95
32452;BME280;45528;52.102;5.242;2023-02-20T01:38:24;101974.0;;;12.97;58.64
32452;BME280;45528;52.102;5.242;2023-02-20T01:40:01;101969.0;;;12.8;58.69
32452;BME280;45528;52.102;5.242;2023-02-20T01:41:39;101970.0;;;12.72;59.33
32452;BME280;45528;52.102;5.242;2023-02-20T01:43:16;101976.0;;;12.95;59.42
32452;BME280;45528;52.102;5.242;2023-02-20T01:46:47;101970.0;;;13.06;59.19
32452;BME280;45528;52.102;5.242;2023-02-20T01:48:26;101961.0;;;13.15;59.13
32452;BME280;45528;52.102;5.242;2023-02-20T01:50:03;101968.0;;;13.03;59.63
32452;BME280;45528;52.102;5.242;2023-02-20T01:51:45;101961.0;;;13.1;59.49
32452;BME280;45528;52.102;5.242;2023-02-20T01:55:10;101967.0;;;12.74;60.43
32452;BME280;45528;52.102;5.242;2023-02-20T01:56:50;101959.0;;;13.05;60.11
32452;BME280;45528;52.102;5.242;2023-02-20T01:58:29;101963.0;;;12.92;60.26
32452;BME280;45528;52.102;5.242;2023-02-20T02:00:14;101956.0;;;12.96;60.67
32452;BME280;45528;52.102;5.242;2023-02-20T02:03:32;101955.0;;;13.31;59.49
32452;BME280;45528;52.102;5.242;2023-02-20T02:05:11;101966.0;;;13.2;59.78
32452;BME280;45528;52.102;5.242;2023-02-20T02:06:51;101959.0;;;13.25;59.96
32452;BME280;45528;52.102;5.242;2023-02-20T02:08:29;101955.0;;;13.31;59.84
32452;BME280;45528;52.102;5.242;2023-02-20T02:11:49;101943.0;;;13.35;59.55
32452;BME280;45528;52.102;5.242;2023-02-20T02:13:26;101943.0;;;13.47;59.4
32452;BME280;45528;52.102;5.242;2023-02-20T02:15:12;101943.0;;;13.5;59.19
32452;BME280;45528;52.102;5.242;2023-02-20T02:17:04;101943.0;;;13.62;58.9
32452;BME280;45528;52.102;5.242;2023-02-20T02:21:53;101936.0;;;13.64;59.02
32452;BME280;45528;52.102;5.242;2023-02-20T02:24:02;101943.0;;;13.65;58.84
32452;BME280;45528;52.102;5.242;2023-02-20T02:27:20;101943.0;;;13.44;
32452;BME280;45528;52.102;5.242;2023-02-20T02:30:34;101938.0;;;13.38;60.08
32452;BME280;45528;52.102;5.242;2023-02-20T02:31:27;101938.0;;;13.38;60.08
32452;BME280;45528;52.102;5.242;2023-02-20T02:32:28;101937.0;;;13.56;59.83
32452;BME280;45528;52.102;5.242;2023-02-20T02:33:28;101937.0;;;13.56;59.83
32452;BME280;45528;52.102;5.242;2023-02-20T02:36:53;101927.0;;;13.57;60.39
32452;BME280;45528;52.102;5.242;2023-02-20T02:38:36;101924.0;;;13.59;60.29
32452;BME280;45528;52.102;5.242;2023-02-20T02:40:26;101925.0;;;13.55;60.41
32452;BME280;45528;52.102;5.242;2023-02-20T02:42:09;101924.0;;;13.46;60.98
32452;BME280;45528;52.102;5.242;2023-02-20T02:45:40;101920.0;;;13.42;60.89
32452;BME280;45528;52.102;5.242;2023-02-20T02:47:23;101917.0;;;13.7;60.15
32452;BME280;45528;52.102;5.242;2023-02-20T02:49:06;101912.0;;;13.55;60.63
32452;BME280;45528;52.102;5.242;2023-02-20T02:50:48;101911.0;;;13.5;60.84
32452;BME280;45528;52.102;5.242;2023-02-20T02:53:02;101913.0;;;13.76;60.21
32452;BME280;45528;52.102;5.242;2023-02-20T02:54:38;101911.0;;;13.59;61.02
32452;BME280;45528;52.102;5.242;2023-02-20T02:58:10;101909.0;;;13.33;61.25
32452;BME280;45528;52.102;5.242;2023-02-20T02:59:51;101906.0;;;13.44;61.54
32452;BME280;45528;52.102;5.242;2023-02-20T03:01:32;101912.0;;;13.43;61.35
32452;BME280;45528;52.102;5.242;2023-02-20T03:03:15;101911.0;;;13.64;61.3
32452;BME280;45528;52.102;5.242;2023-02-20T03:04:56;101913.0;;;13.73;61.08
32452;BME280;45528;52.102;5.242;2023-02-20T03:08:35;101905.0;;;13.41;62.07
32452;BME280;45528;52.102;5.242;2023-02-20T03:10:21;101906.0;;;13.67;61.27
32452;BME280;45528;52.102;5.242;2023-02-20T03:12:00;101901.0;;;13.81;60.9
32452;BME280;45528;52.102;5.242;2023-02-20T03:16:00;101895.0;;;13.74;61.12
32452;BME280;45528;52.102;5.242;2023-02-20T03:17:39;101899.0;;;13.76;60.92
32452;BME280;45528;52.102;5.242;2023-02-20T03:21:11;101896.0;;;13.47;62.0
32452;BME280;45528;52.102;5.242;2023-02-20T03:22:54;101892.0;;;13.94;60.78
32452;BME280;45528;52.102;5.242;2023-02-20T03:24:56;101889.0;;;13.85;60.66
32452;BME280;45528;52.102;5.242;2023-02-20T03:26:36;101885.0;;;13.82;61.01
32452;BME280;45528;52.102;5.242;2023-02-20T03:28:18;101893.0;;;13.92;60.77
32452;BME280;45528;52.102;5.242;2023-02-20T03:29:58;101889.0;;;13.95;60.5
32452;BME280;45528;52.102;5.242;2023-02-20T03:44:25;101881.0;;;13.71;61.38
32452;BME280;45528;52.102;5.242;2023-02-20T03:46:05;101880.0;;;13.95;60.86
32452;BME280;45528;52.102;5.242;2023-02-20T03:47:49;101875.0;;;13.67;61.54
32452;BME280;45528;52.102;5.242;2023-02-20T03:49:31;101874.0;;;13.94;61.04
32452;BME280;45528;52.102;5.242;2023-02-20T03:52:52;101876.0;;;14.15;60.39
32452;BME280;45528;52.102;5.242;2023-02-20T03:54:31;101873.0;;;14.03;60.74
32452;BME280;45528;52.102;5.242;2023-02-20T03:56:12;101876.0;;;14.23;60.25
32452;BME280;45528;52.102;5.242;2023-02-20T03:57:57;101869.0;;;14.0;60.86
32452;BME280;45528;52.102;5.242;2023-02-20T03:59:39;101864.0;;;13.94;61.02
32452;BME280;45528;52.102;5.242;2023-02-20T04:03:02;101862.0;;;14.14;60.51
32452;BME280;45528;52.102;5.242;2023-02-20T04:04:44;101861.0;;;14.06;60.88
32452;BME280;45528;52.102;5.242;2023-02-20T04:06:27;101858.0;;;14.03;60.98
32452;BME280;45528;52.102;5.242;2023-02-20T04:08:09;101859.0;;;14.08;60.91
32452;BME280;45528;52.102;5.242;2023-02-20T04:09:48;101855.0;;;14.0;61.04
32452;BME280;45528;52.102;5.242;2023-02-20T04:13:10;101851.0;;;13.87;61.12
32452;BME280;45528;52.102;5.242;2023-02-20T04:14:50;101855.0;;;14.23;60.66
32452;BME280;45528;52.102;5.242;2023-02-20T04:16:31;101857.0;;;14.2;60.5
32452;BME280;45528;52.102;5.242;2023-02-20T04:18:14;101857.0;;;14.24;60.52
32452;BME280;45528;52.102;5.242;2023-02-20T04:21:33;101859.0;;;14.14;60.83
32452;BME280;45528;52.102;5.242;2023-02-20T04:23:16;101860.0;;;14.11;60.51
32452;BME280;45528;52.102;5.242;2023-02-20T04:24:57;101858.0;;;14.28;60.26
32452;BME280;45528;52.102;5.242;2023-02-20T04:26:36;101860.0;;;14.19;60.5
32452;BME280;45528;52.102;5.242;2023-02-20T04:29:51;101855.0;;;13.95;61.02
32452;BME280;45528;52.102;5.242;2023-02-20T04:31:28;101853.0;;;14.29;60.34
32452;BME280;45528;52.102;5.242;2023-02-20T04:33:05;101851.0;;;14.07;60.66
32452;BME280;45528;52.102;5.242;2023-02-20T04:36:23;101861.0;;;14.23;60.72
32452;BME280;45528;52.102;5.242;2023-02-20T04:38:00;101853.0;;;14.04;60.93
32452;BME280;45528;52.102;5.242;2023-02-20T04:39:36;101856.0;;;14.25;60.38
32452;BME280;45528;52.102;5.242;2023-02-20T04:41:14;101851.0;;;14.33;60.25
32452;BME280;45528;52.102;5.242;2023-02-20T04:44:31;101859.0;;;14.43;60.0
32452;BME280;45528;52.102;5.242;2023-02-20T04:46:09;101858.0;;;14.18;60.6
32452;BME280;45528;52.102;5.242;2023-02-20T04:47:46;101855.0;;;14.32;60.3
32452;BME280;45528;52.102;5.242;2023-02-20T04:50:59;101845.0;;;14.13;60.9
32452;BME280;45528;52.102;5.242;2023-02-20T04:52:37;101845.0;;;14.35;60.44
32452;BME280;45528;52.102;5.242;2023-02-20T04:54:15;101864.0;;;14.31;60.32
32452;BME280;45528;52.102;5.242;2023-02-20T04:55:51;101857.0;;;14.26;60.74
32452;BME280;45528;52.102;5.242;2023-02-20T04:59:04;101850.0;;;14.39;60.42
32452;BME280;45528;52.102;5.242;2023-02-20T05:00:41;101834.0;;;14.37;60.15
32452;BME280;45528;52.102;5.242;2023-02-20T05:02:20;101846.0;;;14.34;60.58
32452;BME280;45528;52.102;5.242;2023-02-20T05:05:34;101847.0;;;14.68;59.47
32452;BME280;45528;52.102;5.242;2023-02-20T05:07:11;101851.0;;;14.67;59.42
32452;BME280;45528;52.102;5.242;2023-02-20T05:08:48;101852.0;;;14.67;59.36
32452;BME280;45528;52.102;5.242;2023-02-20T05:10:26;101846.0;;;14.43;59.81
32452;BME280;45528;52.102;5.242;2023-02-20T05:13:40;101848.0;;;14.53;59.75
32452;BME280;45528;52.102;5.242;2023-02-20T05:15:17;101851.0;;;14.6;59.66
32452;BME280;45528;52.102;5.242;2023-02-20T05:16:55;101848.0;;;14.54;59.54
32452;BME280;45528;52.102;5.242;2023-02-20T05:20:11;101852.0;;;14.41;60.02
32452;BME280;45528;52.102;5.242;2023-02-20T05:22:23;101855.0;;;14.62;59.53
32452;BME280;45528;52.102;5.242;2023-02-20T05:23:59;101846.0;;;14.28;60.52
32452;BME280;45528;52.102;5.242;2023-02-20T05:25:36;101852.0;;;14.31;60.33
32452;BME280;45528;52.102;5.242;2023-02-20T05:27:16;101849.0;;;14.3;60.58
32452;BME280;45528;52.102;5.242;2023-02-20T05:30:30;101855.0;;;14.48;59.95
32452;BME280;45528;52.102;5.242;2023-02-20T05:32:07;101850.0;;;14.58;59.65
32452;BME280;45528;52.102;5.242;2023-02-20T05:33:43;101845.0;;;14.22;60.29
32452;BME280;45528;52.102;5.242;2023-02-20T05:36:57;101852.0;;;14.44;60.02
32452;BME280;45528;52.102;5.242;2023-02-20T05:38:34;101859.0;;;14.56;59.71
32452;BME280;45528;52.102;5.242;2023-02-20T05:40:11;101852.0;;;14.45;59.99
32452;BME280;45528;52.102;5.242;2023-02-20T05:41:48;101851.0;;;14.53;59.93
32452;BME280;45528;52.102;5.242;2023-02-20T05:45:01;101849.0;;;14.39;60.03
32452;BME280;45528;52.102;5.242;2023-02-20T05:46:41;101847.0;;;14.32;60.36
32452;BME280;45528;52.102;5.242;2023-02-20T05:48:17;101845.0;;;14.71;59.28
32452;BME280;45528;52.102;5.242;2023-02-20T05:51:31;101844.0;;;14.56;59.74
32452;BME280;45528;52.102;5.242;2023-02-20T05:53:08;101846.0;;;14.45;59.59
32452;BME280;45528;52.102;5.242;2023-02-20T05:54:45;101846.0;;;14.63;59.5
32452;BME280;45528;52.102;5.242;2023-02-20T05:57:58;101847.0;;;14.71;59.42
32452;BME280;45528;52.102;5.242;2023-02-20T05:59:36;101843.0;;;14.35;60.02
32452;BME280;45528;52.102;5.242;2023-02-20T06:01:17;101842.0;;;14.23;60.61
32452;BME280;45528;52.102;5.242;2023-02-20T06:02:53;101842.0;;;14.53;59.83
32452;BME280;45528;52.102;5.242;2023-02-20T06:06:06;101839.0;;;14.5;59.81
32452;BME280;45528;52.102;5.242;2023-02-20T06:07:42;101839.0;;;14.29;60.14
32452;BME280;45528;52.102;5.242;2023-02-20T06:09:20;101841.0;;;14.58;59.6
32452;BME280;45528;52.102;5.242;2023-02-20T06:12:33;101830.0;;;14.25;60.58
32452;BME280;45528;52.102;5.242;2023-02-20T06:14:10;101833.0;;;14.48;59.73
32452;BME280;45528;52.102;5.242;2023-02-20T06:15:46;101832.0;;;14.28;60.19
32452;BME280;45528;52.102;5.242;2023-02-20T06:17:24;101828.0;;;13.97;60.73
32452;BME280;45528;52.102;5.242;2023-02-20T06:20:37;101833.0;;;14.25;60.49
32452;BME280;45528;52.102;5.242;2023-02-20T06:22:15;101840.0;;;14.4;59.91
32452;BME280;45528;52.102;5.242;2023-02-20T06:23:52;101840.0;;;14.4;59.97
32452;BME280;45528;52.102;5.242;2023-02-20T06:27:07;101837.0;;;14.48;59.86
32452;BME280;45528;52.102;5.242;2023-02-20T06:28:44;101834.0;;;14.28;60.41
32452;BME280;45528;52.102;5.242;2023-02-20T06:30:20;101837.0;;;14.6;59.25
32452;BME280;45528;52.102;5.242;2023-02-20T06:33:34;101841.0;;;14.32;60.06
32452;BME280;45528;52.102;5.242;2023-02-20T06:35:11;101831.0;;;14.56;59.32
32452;BME280;45528;52.102;5.242;2023-02-20T06:36:49;101836.0;;;14.21;60.1
32452;BME280;45528;52.102;5.242;2023-02-20T06:38:26;101843.0;;;14.33;60.09
32452;BME280;45528;52.102;5.242;2023-02-20T06:41:41;101846.0;;;14.43;59.75
32452;BME280;45528;52.102;5.242;2023-02-20T06:43:19;101844.0;;;14.29;59.94
32452;BME280;45528;52.102;5.242;2023-02-20T06:44:56;101842.0;;;14.45;59.83
32452;BME280;45528;52.102;5.242;2023-02-20T06:48:10;101842.0;;;14.25;59.98
32452;BME280;45528;52.102;5.242;2023-02-20T06:49:48;101844.0;;;14.29;60.06
32452;BME280;45528;52.102;5.242;2023-02-20T06:51:26;101837.0;;;14.33;60.09
32452;BME280;45528;52.102;5.242;2023-02-20T06:53:04;101834.0;;;14.39;59.99
32452;BME280;45528;52.102;5.242;2023-02-20T06:56:20;101837.0;;;14.39;59.94
32452;BME280;45528;52.102;5.242;2023-02-20T06:57:59;101845.0;;;14.53;59.27
32452;BME280;45528;52.102;5.242;2023-02-20T06:59:40;101842.0;;;14.2;60.1
32452;BME280;45528;52.102;5.242;2023-02-20T07:01:21;101843.0;;;14.56;59.23
32452;BME280;45528;52.102;5.242;2023-02-20T07:04:36;101855.0;;;14.66;59.28
32452;BME280;45528;52.102;5.242;2023-02-20T07:06:14;101848.0;;;14.76;59.04
32452;BME280;45528;52.102;5.242;2023-02-20T07:07:50;101849.0;;;14.44;59.81
32452;BME280;45528;52.102;5.242;2023-02-20T07:11:05;101848.0;;;14.54;59.75
32452;BME280;45528;52.102;5.242;2023-02-20T07:12:42;101844.0;;;14.45;59.61
32452;BME280;45528;52.102;5.242;2023-02-20T07:14:18;101848.0;;;14.55;59.59
32452;BME280;45528;52.102;5.242;2023-02-20T07:15:55;101851.0;;;14.38;60.03
32452;BME280;45528;52.102;5.242;2023-02-20T07:19:10;101847.0;;;14.49;59.77
32452;BME280;45528;52.102;5.242;2023-02-20T07:20:47;101850.0;;;14.82;59.02
32452;BME280;45528;52.102;5.242;2023-02-20T07:22:26;101845.0;;;14.22;60.38
32452;BME280;45528;52.102;5.242;2023-02-20T07:25:42;101850.0;;;14.51;60.05
32452;BME280;45528;52.102;5.242;2023-02-20T07:27:20;101856.0;;;14.21;60.65
32452;BME280;45528;52.102;5.242;2023-02-20T07:28:58;101851.0;;;14.63;59.52
32452;BME280;45528;52.102;5.242;2023-02-20T07:30:34;101857.0;;;14.39;60.3
32452;BME280;45528;52.102;5.242;2023-02-20T07:33:49;101851.0;;;14.47;59.86
32452;BME280;45528;52.102;5.242;2023-02-20T07:35:26;101857.0;;;14.54;59.96
32452;BME280;45528;52.102;5.242;2023-02-20T07:37:02;101851.0;;;14.62;59.74
32452;BME280;45528;52.102;5.242;2023-02-20T07:40:16;101851.0;;;14.59;59.84
32452;BME280;45528;52.102;5.242;2023-02-20T07:41:54;101856.0;;;14.67;59.42
32452;BME280;45528;52.102;5.242;2023-02-20T07:43:32;101853.0;;;14.65;59.54
32452;BME280;45528;52.102;5.242;2023-02-20T07:46:46;101852.0;;;14.86;59.15
32452;BME280;45528;52.102;5.242;2023-02-20T07:48:22;101859.0;;;14.9;58.88
32452;BME280;45528;52.102;5.242;2023-02-20T07:49:59;101858.0;;;14.65;59.67
32452;BME280;45528;52.102;5.242;2023-02-20T07:51:35;101855.0;;;14.65;59.75
32452;BME280;45528;52.102;5.242;2023-02-20T07:54:51;101870.0;;;14.75;59.54
32452;BME280;45528;52.102;5.242;2023-02-20T07:56:27;101864.0;;;14.87;59.25
32452;BME280;45528;52.102;5.242;2023-02-20T07:58:04;101861.0;;;14.54;59.9
32452;BME280;45528;52.102;5.242;2023-02-20T08:01:18;101859.0;;;14.32;60.81
32452;BME280;45528;52.102;5.242;2023-02-20T08:02:54;101859.0;;;14.71;59.95
32452;BME280;45528;52.102;5.242;2023-02-20T08:04:31;101858.0;;;14.72;59.82
32452;BME280;45528;52.102;5.242;2023-02-20T08:06:07;101850.0;;;14.79;59.78
32452;BME280;45528;52.102;5.242;2023-02-20T08:09:20;101851.0;;;14.49;60.58
32452;BME280;45528;52.102;5.242;2023-02-20T08:10:56;101851.0;;;14.87;59.42
32452;BME280;45528;52.102;5.242;2023-02-20T08:12:34;101850.0;;;14.6;60.38
32452;BME280;45528;52.102;5.242;2023-02-20T08:15:49;101849.0;;;14.99;59.47
32452;BME280;45528;52.102;5.242;2023-02-20T08:17:25;101846.0;;;14.96;59.52
32452;BME280;45528;52.102;5.242;2023-02-20T08:19:01;101847.0;;;14.74;59.97
32452;BME280;45528;52.102;5.242;2023-02-20T08:22:14;101848.0;;;14.54;60.75
32452;BME280;45528;52.102;5.242;2023-02-20T08:23:51;101850.0;;;14.74;60.12
32452;BME280;45528;52.102;5.242;2023-02-20T08:25:27;101849.0;;;14.49;61.08
32452;BME280;45528;52.102;5.242;2023-02-20T08:27:04;101855.0;;;15.07;59.5
32452;BME280;45528;52.102;5.242;2023-02-20T08:30:20;101856.0;;;14.94;59.93
32452;BME280;45528;52.102;5.242;2023-02-20T08:31:58;101852.0;;;14.8;60.29
32452;BME280;45528;52.102;5.242;2023-02-20T08:33:34;101850.0;;;14.7;60.46
32452;BME280;45528;52.102;5.242;2023-02-20T08:36:47;101851.0;;;14.45;61.3
32452;BME280;45528;52.102;5.242;2023-02-20T08:38:26;101845.0;;;15.05;59.58
32452;BME280;45528;52.102;5.242;2023-02-20T08:40:07;101844.0;;;15.33;58.99
32452;BME280;45528;52.102;5.242;2023-02-20T08:41:46;101846.0;;;15.29;59.09
32452;BME280;45528;52.102;5.242;2023-02-20T08:44:59;101840.0;;;14.96;59.55
32452;BME280;45528;52.102;5.242;2023-02-20T08:46:35;101840.0;;;15.27;58.96
32452;BME280;45528;52.102;5.242;2023-02-20T08:48:12;101837.0;;;14.97;59.58
32452;BME280;45528;52.102;5.242;2023-02-20T08:51:25;101830.0;;;14.69;60.59
32452;BME280;45528;52.102;5.242;2023-02-20T08:53:01;101844.0;;;15.12;59.77
32452;BME280;45528;52.102;5.242;2023-02-20T08:54:37;101837.0;;;15.02;59.88
32452;BME280;45528;52.102;5.242;2023-02-20T08:57:55;101830.0;;;14.95;60.14
32452;BME280;45528;52.102;5.242;2023-02-20T08:59:31;101832.0;;;14.67;61.03
32452;BME280;45528;52.102;5.242;2023-02-20T09:01:07;101832.0;;;14.58;61.28
32452;BME280;45528;52.102;5.242;2023-02-20T09:02:45;101839.0;;;14.8;61.02
32452;BME280;45528;52.102;5.242;2023-02-20T09:05:59;101836.0;;;14.68;60.89
32452;BME280;45528;52.102;5.242;2023-02-20T09:07:35;101828.0;;;14.89;60.62
32452;BME280;45528;52.102;5.242;2023-02-20T09:09:12;101834.0;;;14.62;61.34
32452;BME280;45528;52.102;5.242;2023-02-20T09:12:24;101836.0;;;15.13;60.08
32452;BME280;45528;52.102;5.242;2023-02-20T09:14:00;101831.0;;;15.13;59.92
32452;BME280;45528;52.102;5.242;2023-02-20T09:15:39;101823.0;;;14.96;60.43
32452;BME280;45528;52.102;5.242;2023-02-20T09:17:15;101835.0;;;14.96;60.51
32452;BME280;45528;52.102;5.242;2023-02-20T09:20:31;101831.0;;;15.05;60.35
32452;BME280;45528;52.102;5.242;2023-02-20T09:22:07;101834.0;;;14.98;60.38
32452;BME280;45528;52.102;5.242;2023-02-20T09:23:44;101839.0;;;15.27;59.71
32452;BME280;45528;52.102;5.242;2023-02-20T09:26:57;101834.0;;;15.1;60.02
32452;BME280;45528;52.102;5.242;2023-02-20T09:28:33;101833.0;;;15.38;59.03
32452;BME280;45528;52.102;5.242;2023-02-20T09:30:14;101831.0;;;14.9;60.09
32452;BME280;45528;52.102;5.242;2023-02-20T09:33:28;101826.0;;;15.0;59.96
32452;BME280;45528;52.102;5.242;2023-02-20T09:35:05;101834.0;;;14.76;60.82
32452;BME280;45528;52.102;5.242;2023-02-20T09:36:41;101835.0;;;14.95;60.47
32452;BME280;45528;52.102;5.242;2023-02-20T09:38:17;101830.0;;;15.07;60.03
32452;BME280;45528;52.102;5.242;2023-02-20T09:41:40;101837.0;;;15.17;59.6
32452;BME280;45528;52.102;5.242;2023-02-20T09:43:29;101843.0;;;14.84;60.65
32452;BME280;45528;52.102;5.242;2023-02-20T09:45:19;101838.0;;;14.72;60.91
32452;BME280;45528;52.102;5.242;2023-02-20T09:47:02;101846.0;;;14.96;60.47
32452;BME280;45528;52.102;5.242;2023-02-20T09:48:52;101845.0;;;15.15;59.84
32452;BME280;45528;52.102;5.242;2023-02-20T09:50:48;101850.0;;;14.86;60.81
32452;BME280;45528;52.102;5.242;2023-02-20T09:54:08;101852.0;;;14.93;60.3
32452;BME280;45528;52.102;5.242;2023-02-20T09:55:46;101852.0;;;14.51;61.44
32452;BME280;45528;52.102;5.242;2023-02-20T09:57:26;101843.0;;;15.05;59.73
32452;BME280;45528;52.102;5.242;2023-02-20T10:00:49;101844.0;;;14.71;60.87
32452;BME280;45528;52.102;5.242;2023-02-20T10:02:28;101839.0;;;15.02;59.87
32452;BME280;45528;52.102;5.242;2023-02-20T10:04:09;101845.0;;;15.29;59.29
32452;BME280;45528;52.102;5.242;2023-02-20T10:05:49;101843.0;;;15.26;59.27
32452;BME280;45528;52.102;5.242;2023-02-20T10:09:09;101827.0;;;15.37;59.01
32452;BME280;45528;52.102;5.242;2023-02-20T10:10:49;101837.0;;;15.31;59.22
32452;BME280;45528;52.102;5.242;2023-02-20T10:12:31;101839.0;;;15.3;59.23
32452;BME280;45528;52.102;5.242;2023-02-20T10:14:29;101836.0;;;15.38;59.23
32452;BME280;45528;52.102;5.242;2023-02-20T10:16:19;101830.0;;;15.34;59.19
32452;BME280;45528;52.102;5.242;2023-02-20T10:18:07;101833.0;;;15.34;59.39
32452;BME280;45528;52.102;5.242;2023-02-20T10:21:44;101836.0;;;15.62;58.82
32452;BME280;45528;52.102;5.242;2023-02-20T10:23:35;101847.0;;;15.73;58.28
32452;BME280;45528;52.102;5.242;2023-02-20T10:25:23;101836.0;;;15.64;58.44
32452;BME280;45528;52.102;5.242;2023-02-20T10:27:17;101839.0;;;15.08;59.56
32452;BME280;45528;52.102;5.242;2023-02-20T10:29:08;101844.0;;;15.06;59.66
32452;BME280;45528;52.102;5.242;2023-02-20T10:30:54;101847.0;;;15.39;58.59
32452;BME280;45528;52.102;5.242;2023-02-20T10:32:37;101846.0;;;15.54;58.05
32452;BME280;45528;52.102;5.242;2023-02-20T10:36:08;101844.0;;;15.84;57.98
32452;BME280;45528;52.102;5.242;2023-02-20T10:37:52;101841.0;;;15.6;58.52
32452;BME280;45528;52.102;5.242;2023-02-20T10:39:31;101852.0;;;15.73;58.31
32452;BME280;45528;52.102;5.242;2023-02-20T10:41:16;101845.0;;;15.75;57.9
32452;BME280;45528;52.102;5.242;2023-02-20T10:44:44;101834.0;;;16.0;57.33
32452;BME280;45528;52.102;5.242;2023-02-20T10:46:29;101823.0;;;15.73;57.77
32452;BME280;45528;52.102;5.242;2023-02-20T10:48:09;101819.0;;;15.23;59.08
32452;BME280;45528;52.102;5.242;2023-02-20T10:49:54;101828.0;;;15.28;59.14
32452;BME280;45528;52.102;5.242;2023-02-20T10:51:35;101831.0;;;15.83;57.85
32452;BME280;45528;52.102;5.242;2023-02-20T10:55:05;101825.0;;;15.87;57.82
32452;BME280;45528;52.102;5.242;2023-02-20T10:56:50;101822.0;;;16.02;57.36
32452;BME280;45528;52.102;5.242;2023-02-20T10:58:37;101824.0;;;15.54;58.04
32452;BME280;45528;52.102;5.242;2023-02-20T11:00:19;101830.0;;;15.64;58.09
32452;BME280;45528;52.102;5.242;2023-02-20T11:01:59;101845.0;;;15.74;57.87
32452;BME280;45528;52.102;5.242;2023-02-20T11:05:25;101853.0;;;15.55;58.35
32452;BME280;45528;52.102;5.242;2023-02-20T11:07:08;101837.0;;;14.79;60.34
32452;BME280;45528;52.102;5.242;2023-02-20T11:08:47;101832.0;;;15.27;59.07
32452;BME280;45528;52.102;5.242;2023-02-20T11:10:23;101809.0;;;15.21;59.3
32452;BME280;45528;52.102;5.242;2023-02-20T11:13:37;101814.0;;;15.43;58.74
32452;BME280;45528;52.102;5.242;2023-02-20T11:15:15;101819.0;;;15.46;58.35
32452;BME280;45528;52.102;5.242;2023-02-20T11:16:57;101841.0;;;15.28;59.2
32452;BME280;45528;52.102;5.242;2023-02-20T11:20:44;101835.0;;;15.54;58.45
32452;BME280;45528;52.102;5.242;2023-02-20T11:22:42;101830.0;;;15.99;57.19